createdAt,value
2022-08-18T00:00:47.564Z,6.80
2022-08-18T00:01:47.657Z,5.60
2022-08-18T00:03:00.459Z,8.20
2022-08-18T00:03:56.143Z,6.80
2022-08-18T00:04:49.666Z,6.00
2022-08-18T00:05:47.517Z,8.50
2022-08-18T00:06:47.715Z,4.80
2022-08-18T00:07:47.509Z,5.50
2022-08-18T00:08:47.485Z,5.80
2022-08-18T00:09:47.481Z,7.90
2022-08-18T00:10:47.473Z,4.70
2022-08-18T00:11:47.510Z,10.70
2022-08-18T00:12:47.523Z,7.00
2022-08-18T00:13:47.448Z,4.90
2022-08-18T00:14:47.441Z,8.30
2022-08-18T00:15:48.893Z,6.50
2022-08-18T00:16:47.430Z,7.50
2022-08-18T00:17:47.411Z,6.30
2022-08-18T00:18:47.406Z,6.10
2022-08-18T00:19:48.380Z,5.70
2022-08-18T00:20:48.437Z,6.90
2022-08-18T00:21:47.386Z,6.00
2022-08-18T00:22:47.422Z,5.30
2022-08-18T00:23:47.371Z,9.40
2022-08-18T00:24:48.581Z,5.80
2022-08-18T00:25:47.376Z,6.40
2022-08-18T00:26:47.344Z,9.40
2022-08-18T00:27:47.333Z,6.30
2022-08-18T00:28:47.327Z,7.30
2022-08-18T00:29:47.318Z,7.40
2022-08-18T00:30:47.341Z,6.10
2022-08-18T00:31:48.298Z,7.40
2022-08-18T00:32:47.416Z,7.60
2022-08-18T00:33:47.286Z,6.80
2022-08-18T00:34:47.277Z,8.50
2022-08-18T00:35:47.295Z,9.80
2022-08-18T00:36:47.261Z,6.20
2022-08-18T00:37:47.340Z,9.20
2022-08-18T00:38:47.241Z,6.40
2022-08-18T00:39:47.816Z,10.40
2022-08-18T00:40:47.256Z,6.70
2022-08-18T00:41:47.207Z,10.20
2022-08-18T00:42:47.275Z,8.40
2022-08-18T00:43:47.198Z,6.50
2022-08-18T00:44:47.188Z,12.80
2022-08-18T00:45:47.211Z,8.70
2022-08-18T00:46:47.169Z,8.20
2022-08-18T00:47:47.182Z,8.10
2022-08-18T00:48:48.894Z,6.10
2022-08-18T00:49:47.162Z,5.60
2022-08-18T00:50:47.178Z,6.80
2022-08-18T00:51:47.147Z,7.30
2022-08-18T00:52:47.126Z,9.20
2022-08-18T00:53:47.127Z,8.20
2022-08-18T00:54:47.108Z,7.20
2022-08-18T00:55:54.085Z,6.70
2022-08-18T00:56:48.089Z,9.00
2022-08-18T00:57:47.108Z,10.40
2022-08-18T00:58:47.082Z,7.20
2022-08-18T00:59:47.072Z,6.10
2022-08-18T01:00:47.111Z,9.70
2022-08-18T01:01:47.085Z,8.70
2022-08-18T01:02:47.050Z,8.70
2022-08-18T01:03:47.039Z,7.20
2022-08-18T01:04:47.029Z,8.20
2022-08-18T01:05:47.033Z,7.80
2022-08-18T01:06:47.045Z,7.40
2022-08-18T01:07:47.140Z,9.50
2022-08-18T01:08:47.022Z,11.00
2022-08-18T01:09:46.990Z,10.20
2022-08-18T01:10:46.988Z,8.20
2022-08-18T01:11:47.006Z,9.80
2022-08-18T01:12:47.253Z,6.80
2022-08-18T01:13:47.960Z,11.00
2022-08-18T01:14:46.961Z,9.80
2022-08-18T01:15:46.939Z,9.40
2022-08-18T01:16:56.695Z,8.10
2022-08-18T01:17:47.988Z,10.50
2022-08-18T01:18:46.911Z,10.10
2022-08-18T01:19:46.898Z,8.20
2022-08-18T01:20:46.904Z,6.30
2022-08-18T01:21:46.921Z,7.20
2022-08-18T01:22:46.970Z,7.90
2022-08-18T01:23:46.877Z,9.10
2022-08-18T01:24:46.868Z,6.20
2022-08-18T01:25:46.856Z,6.10
2022-08-18T01:26:46.877Z,5.90
2022-08-18T01:27:46.871Z,7.30
2022-08-18T01:28:46.846Z,7.90
2022-08-18T01:29:46.814Z,6.20
2022-08-18T01:30:47.804Z,6.40
2022-08-18T01:31:54.762Z,7.80
2022-08-18T01:32:47.789Z,7.50
2022-08-18T01:33:46.785Z,9.30
2022-08-18T01:34:46.771Z,6.40
2022-08-18T01:35:46.772Z,6.60
2022-08-18T01:36:46.785Z,9.00
2022-08-18T01:37:46.754Z,5.40
2022-08-18T01:38:46.743Z,5.70
2022-08-18T01:41:17.213Z,10.40
2022-08-18T01:41:25.256Z,5.80
2022-08-18T01:41:47.774Z,5.60
2022-08-18T01:42:46.704Z,4.90
2022-08-18T01:43:46.694Z,8.50
2022-08-18T01:44:46.695Z,7.60
2022-08-18T01:45:46.693Z,7.90
2022-08-18T01:46:46.732Z,10.00
2022-08-18T01:47:47.739Z,7.40
2022-08-18T01:48:47.673Z,9.00
2022-08-18T01:49:46.649Z,7.60
2022-08-18T01:50:46.633Z,9.70
2022-08-18T01:51:47.657Z,12.10
2022-08-18T01:52:46.628Z,11.30
2022-08-18T01:53:46.643Z,7.30
2022-08-18T01:54:46.602Z,8.20
2022-08-18T01:55:46.601Z,10.00
2022-08-18T01:56:46.621Z,10.90
2022-08-18T01:57:46.674Z,9.30
2022-08-18T01:58:46.566Z,7.00
2022-08-18T01:59:46.565Z,6.70
2022-08-18T02:00:46.558Z,8.70
2022-08-18T02:01:50.415Z,8.90
2022-08-18T02:02:47.542Z,13.60
2022-08-18T02:03:47.524Z,8.70
2022-08-18T02:04:46.513Z,10.10
2022-08-18T02:05:46.509Z,7.60
2022-08-18T02:06:46.541Z,7.10
2022-08-18T02:07:46.547Z,7.90
2022-08-18T02:08:46.565Z,13.20
2022-08-18T02:09:47.473Z,7.20
2022-08-18T02:10:46.465Z,7.90
2022-08-18T02:11:46.489Z,7.50
2022-08-18T02:12:46.455Z,12.70
2022-08-18T02:13:46.445Z,8.30
2022-08-18T02:14:46.444Z,9.00
2022-08-18T02:15:46.426Z,7.50
2022-08-18T02:16:46.414Z,10.10
2022-08-18T02:17:46.439Z,8.60
2022-08-18T02:18:48.473Z,8.90
2022-08-18T02:19:46.397Z,7.20
2022-08-18T02:20:46.387Z,8.80
2022-08-18T02:21:46.390Z,8.40
2022-08-18T02:22:46.396Z,6.40
2022-08-18T02:23:52.796Z,9.20
2022-08-18T02:24:47.344Z,9.20
2022-08-18T02:25:46.344Z,6.60
2022-08-18T02:26:46.329Z,8.90
2022-08-18T02:27:46.351Z,9.30
2022-08-18T02:28:46.316Z,8.00
2022-08-18T02:29:46.324Z,8.90
2022-08-18T02:30:46.338Z,7.10
2022-08-18T02:31:46.289Z,7.20
2022-08-18T02:32:46.312Z,7.90
2022-08-18T02:33:51.867Z,7.20
2022-08-18T02:34:47.264Z,7.90
2022-08-18T02:35:46.260Z,7.30
2022-08-18T02:36:46.250Z,7.10
2022-08-18T02:37:46.318Z,7.20
2022-08-18T02:38:48.705Z,7.50
2022-08-18T02:39:47.258Z,7.10
2022-08-18T02:40:46.220Z,6.30
2022-08-18T02:41:46.203Z,8.80
2022-08-18T02:42:46.224Z,8.60
2022-08-18T02:43:46.197Z,6.80
2022-08-18T02:44:46.181Z,6.30
2022-08-18T02:45:46.172Z,6.20
2022-08-18T02:46:46.165Z,7.20
2022-08-18T02:47:46.245Z,14.50
2022-08-18T02:48:46.152Z,5.60
2022-08-18T02:49:46.162Z,8.10
2022-08-18T02:50:46.144Z,10.40
2022-08-18T02:51:46.121Z,10.40
2022-08-18T02:52:46.136Z,13.20
2022-08-18T02:53:46.120Z,14.70
2022-08-18T02:54:46.099Z,9.40
2022-08-18T02:55:46.085Z,11.50
2022-08-18T02:56:46.087Z,9.40
2022-08-18T02:57:46.111Z,9.30
2022-08-18T02:58:46.063Z,13.10
2022-08-18T02:59:47.445Z,11.60
2022-08-18T03:00:46.054Z,10.60
2022-08-18T03:01:46.186Z,8.50
2022-08-18T03:02:46.062Z,8.40
2022-08-18T03:03:46.024Z,8.10
2022-08-18T03:04:46.015Z,16.10
2022-08-18T03:05:46.002Z,12.30
2022-08-18T03:06:45.999Z,11.70
2022-08-18T03:07:46.024Z,13.10
2022-08-18T03:08:45.981Z,12.10
2022-08-18T03:09:45.978Z,9.00
2022-08-18T03:10:45.976Z,13.10
2022-08-18T03:11:45.957Z,10.10
2022-08-18T03:12:45.986Z,10.80
2022-08-18T03:13:45.932Z,9.20
2022-08-18T03:14:46.935Z,11.50
2022-08-18T03:15:45.936Z,10.90
2022-08-18T03:16:53.651Z,12.90
2022-08-18T03:17:46.940Z,7.80
2022-08-18T03:18:45.899Z,10.00
2022-08-18T03:19:46.770Z,8.60
2022-08-18T03:20:45.884Z,13.80
2022-08-18T03:21:45.877Z,14.30
2022-08-18T03:22:45.871Z,9.20
2022-08-18T03:23:45.893Z,12.70
2022-08-18T03:24:46.842Z,11.10
2022-08-18T03:25:45.847Z,13.20
2022-08-18T03:26:45.838Z,9.60
2022-08-18T03:27:45.829Z,13.30
2022-08-18T03:28:45.850Z,9.20
2022-08-18T03:29:45.813Z,11.10
2022-08-18T03:30:45.802Z,8.30
2022-08-18T03:31:45.797Z,13.90
2022-08-18T03:32:46.093Z,8.20
2022-08-18T03:33:45.814Z,8.30
2022-08-18T03:34:45.782Z,6.90
2022-08-18T03:35:45.765Z,7.90
2022-08-18T03:36:45.743Z,7.10
2022-08-18T03:37:46.746Z,10.20
2022-08-18T03:38:45.767Z,7.90
2022-08-18T03:39:46.782Z,12.10
2022-08-18T03:40:45.720Z,9.60
2022-08-18T03:41:58.241Z,7.50
2022-08-18T03:42:46.703Z,13.30
2022-08-18T03:43:51.210Z,7.50
2022-08-18T03:44:46.682Z,7.60
2022-08-18T03:45:45.671Z,10.60
2022-08-18T03:46:45.678Z,12.30
2022-08-18T03:47:45.757Z,8.20
2022-08-18T03:48:45.681Z,9.80
2022-08-18T03:49:45.644Z,9.10
2022-08-18T03:50:45.630Z,10.60
2022-08-18T03:51:45.630Z,10.80
2022-08-18T03:52:45.624Z,10.10
2022-08-18T03:53:45.641Z,9.30
2022-08-18T03:54:45.614Z,11.60
2022-08-18T03:55:45.610Z,12.00
2022-08-18T03:56:45.585Z,7.30
2022-08-18T03:57:45.642Z,7.00
2022-08-18T03:58:45.603Z,10.70
2022-08-18T03:59:45.571Z,7.30
2022-08-18T04:00:45.559Z,7.40
2022-08-18T04:01:45.682Z,8.30
2022-08-18T04:02:45.539Z,10.60
2022-08-18T04:03:45.560Z,8.20
2022-08-18T04:04:45.524Z,6.60
2022-08-18T04:05:45.516Z,9.00
2022-08-18T04:06:45.521Z,8.60
2022-08-18T04:07:45.518Z,9.00
2022-08-18T04:08:45.517Z,9.50
2022-08-18T04:09:45.484Z,13.00
2022-08-18T04:10:45.496Z,9.00
2022-08-18T04:11:45.477Z,7.70
2022-08-18T04:12:45.455Z,6.90
2022-08-18T04:13:45.470Z,10.30
2022-08-18T04:14:46.446Z,10.40
2022-08-18T04:15:45.439Z,7.10
2022-08-18T04:16:45.427Z,9.50
2022-08-18T04:18:03.525Z,10.10
2022-08-18T04:18:46.437Z,8.30
2022-08-18T04:19:45.395Z,8.80
2022-08-18T04:20:59.387Z,8.30
2022-08-18T04:21:46.403Z,7.70
2022-08-18T04:22:45.374Z,9.00
2022-08-18T04:23:45.393Z,9.40
2022-08-18T04:24:45.432Z,7.70
2022-08-18T04:25:45.350Z,6.80
2022-08-18T04:26:45.341Z,6.80
2022-08-18T04:27:45.378Z,8.90
2022-08-18T04:28:45.356Z,8.70
2022-08-18T04:29:45.318Z,9.30
2022-08-18T04:30:45.311Z,13.30
2022-08-18T04:31:45.305Z,9.90
2022-08-18T04:32:45.310Z,8.80
2022-08-18T04:33:45.320Z,10.50
2022-08-18T04:34:45.274Z,10.00
2022-08-18T04:35:45.284Z,8.20
2022-08-18T04:36:45.257Z,11.00
2022-08-18T04:37:45.258Z,9.90
2022-08-18T04:38:45.240Z,11.20
2022-08-18T04:39:45.352Z,8.90
2022-08-18T04:40:45.223Z,10.10
2022-08-18T04:41:45.216Z,8.50
2022-08-18T04:42:45.249Z,7.80
2022-08-18T04:43:45.196Z,8.00
2022-08-18T04:44:45.225Z,7.40
2022-08-18T04:45:45.185Z,10.00
2022-08-18T04:46:45.174Z,7.20
2022-08-18T04:47:45.194Z,9.90
2022-08-18T04:48:45.186Z,11.10
2022-08-18T04:49:45.159Z,8.70
2022-08-18T04:50:45.143Z,9.80
2022-08-18T04:52:26.899Z,8.30
2022-08-18T04:52:46.123Z,7.70
2022-08-18T04:53:45.147Z,9.10
2022-08-18T04:54:45.135Z,10.80
2022-08-18T04:55:45.113Z,11.30
2022-08-18T04:56:45.095Z,12.50
2022-08-18T04:57:45.081Z,9.60
2022-08-18T04:58:45.105Z,8.50
2022-08-18T04:59:45.070Z,8.30
2022-08-18T05:00:45.083Z,8.20
2022-08-18T05:01:45.122Z,8.30
2022-08-18T05:02:45.039Z,9.30
2022-08-18T05:03:50.189Z,8.40
2022-08-18T05:04:46.062Z,8.80
2022-08-18T05:05:45.018Z,9.50
2022-08-18T05:06:45.017Z,8.70
2022-08-18T05:07:45.083Z,9.20
2022-08-18T05:08:44.993Z,7.50
2022-08-18T05:09:45.023Z,10.50
2022-08-18T05:10:44.985Z,9.90
2022-08-18T05:11:44.977Z,13.00
2022-08-18T05:12:44.969Z,11.10
2022-08-18T05:13:44.952Z,10.60
2022-08-18T05:14:44.972Z,8.20
2022-08-18T05:16:07.338Z,11.10
2022-08-18T05:16:48.767Z,7.90
2022-08-18T05:17:44.961Z,12.70
2022-08-18T05:18:44.913Z,11.00
2022-08-18T05:19:44.936Z,12.50
2022-08-18T05:20:44.904Z,8.20
2022-08-18T05:21:44.897Z,9.20
2022-08-18T05:22:44.962Z,9.10
2022-08-18T05:23:44.901Z,14.90
2022-08-18T05:24:44.862Z,11.40
2022-08-18T05:25:44.856Z,9.80
2022-08-18T05:26:44.854Z,9.70
2022-08-18T05:27:44.906Z,10.40
2022-08-18T05:28:44.869Z,10.90
2022-08-18T05:29:45.757Z,10.00
2022-08-18T05:30:44.813Z,11.90
2022-08-18T05:31:44.816Z,13.10
2022-08-18T05:32:48.633Z,10.80
2022-08-18T05:33:44.833Z,11.00
2022-08-18T05:34:44.780Z,7.50
2022-08-18T05:35:44.769Z,7.90
2022-08-18T05:36:44.772Z,11.80
2022-08-18T05:37:44.754Z,8.80
2022-08-18T05:38:44.784Z,11.20
2022-08-18T05:39:44.779Z,11.00
2022-08-18T05:40:44.729Z,9.90
2022-08-18T05:41:44.721Z,9.60
2022-08-18T05:42:44.719Z,11.70
2022-08-18T05:43:51.125Z,12.80
2022-08-18T05:44:45.702Z,10.10
2022-08-18T05:45:44.694Z,9.90
2022-08-18T05:46:44.708Z,9.30
2022-08-18T05:47:44.673Z,10.10
2022-08-18T05:48:44.713Z,8.70
2022-08-18T05:49:44.661Z,8.10
2022-08-18T05:50:44.653Z,10.00
2022-08-18T05:51:44.645Z,10.70
2022-08-18T05:52:45.636Z,21.10
2022-08-18T05:53:44.658Z,9.40
2022-08-18T05:54:44.615Z,11.20
2022-08-18T05:55:47.807Z,8.50
2022-08-18T05:56:45.616Z,10.20
2022-08-18T05:57:44.661Z,11.10
2022-08-18T05:58:44.615Z,9.40
2022-08-18T05:59:44.573Z,9.70
2022-08-18T06:00:44.578Z,10.50
2022-08-18T06:01:44.560Z,9.60
2022-08-18T06:02:44.583Z,10.80
2022-08-18T06:03:45.093Z,10.30
2022-08-18T06:04:44.533Z,8.60
2022-08-18T06:05:44.529Z,9.00
2022-08-18T06:06:47.704Z,8.80
2022-08-18T06:07:45.566Z,10.00
2022-08-18T06:08:44.529Z,10.40
2022-08-18T06:09:44.492Z,8.30
2022-08-18T06:10:44.478Z,7.70
2022-08-18T06:11:44.474Z,12.60
2022-08-18T06:12:47.078Z,10.70
2022-08-18T06:13:45.496Z,11.60
2022-08-18T06:14:44.448Z,10.30
2022-08-18T06:15:44.449Z,12.50
2022-08-18T06:16:45.257Z,8.30
2022-08-18T06:17:44.428Z,12.50
2022-08-18T06:18:44.443Z,11.10
2022-08-18T06:19:44.400Z,12.80
2022-08-18T06:20:44.409Z,10.00
2022-08-18T06:21:44.386Z,9.80
2022-08-18T06:22:52.074Z,9.50
2022-08-18T06:23:45.417Z,11.80
2022-08-18T06:24:44.364Z,12.60
2022-08-18T06:25:44.377Z,13.90
2022-08-18T06:26:44.343Z,10.40
2022-08-18T06:27:44.334Z,12.80
2022-08-18T06:28:44.330Z,13.50
2022-08-18T06:29:44.347Z,11.50
2022-08-18T06:30:44.311Z,12.10
2022-08-18T06:31:44.311Z,11.00
2022-08-18T06:32:44.311Z,11.00
2022-08-18T06:33:45.923Z,10.20
2022-08-18T06:34:44.315Z,14.00
2022-08-18T06:35:44.267Z,12.00
2022-08-18T06:36:44.269Z,14.20
2022-08-18T06:37:44.262Z,11.80
2022-08-18T06:38:45.775Z,13.60
2022-08-18T06:39:44.411Z,10.80
2022-08-18T06:40:44.228Z,10.90
2022-08-18T06:41:44.223Z,10.20
2022-08-18T06:42:44.215Z,14.50
2022-08-18T06:43:44.209Z,8.90
2022-08-18T06:44:44.238Z,12.80
2022-08-18T06:45:44.191Z,13.70
2022-08-18T06:46:44.190Z,12.40
2022-08-18T06:47:44.174Z,9.60
2022-08-18T06:48:44.172Z,12.60
2022-08-18T06:49:44.187Z,13.10
2022-08-18T06:50:44.149Z,9.30
2022-08-18T06:51:44.141Z,12.20
2022-08-18T06:52:44.153Z,13.00
2022-08-18T06:53:44.132Z,13.00
2022-08-18T06:54:49.369Z,15.10
2022-08-18T06:55:45.114Z,11.80
2022-08-18T06:56:44.104Z,12.80
2022-08-18T06:57:44.137Z,7.90
2022-08-18T06:58:44.105Z,13.40
2022-08-18T06:59:44.115Z,11.70
2022-08-18T07:00:44.161Z,13.50
2022-08-18T07:01:45.064Z,11.40
2022-08-18T07:02:44.064Z,14.40
2022-08-18T07:03:44.075Z,12.40
2022-08-18T07:04:44.070Z,11.20
2022-08-18T07:05:44.030Z,10.70
2022-08-18T07:06:44.014Z,10.90
2022-08-18T07:07:44.015Z,9.00
2022-08-18T07:08:44.002Z,15.00
2022-08-18T07:09:44.021Z,13.80
2022-08-18T07:10:44.991Z,13.70
2022-08-18T07:11:43.981Z,12.20
2022-08-18T07:12:43.975Z,9.60
2022-08-18T07:13:43.967Z,10.00
2022-08-18T07:14:43.992Z,12.70
2022-08-18T07:15:44.008Z,17.20
2022-08-18T07:16:59.980Z,13.40
2022-08-18T07:17:45.929Z,10.30
2022-08-18T07:18:43.933Z,15.10
2022-08-18T07:19:43.955Z,10.70
2022-08-18T07:20:43.912Z,14.20
2022-08-18T07:21:43.900Z,15.20
2022-08-18T07:22:43.921Z,16.40
2022-08-18T07:23:53.742Z,17.40
2022-08-18T07:24:44.910Z,16.30
2022-08-18T07:25:43.880Z,22.40
2022-08-18T07:26:43.866Z,13.80
2022-08-18T07:27:43.877Z,14.70
2022-08-18T07:28:43.834Z,13.40
2022-08-18T07:29:44.865Z,18.70
2022-08-18T07:31:00.243Z,17.20
2022-08-18T07:31:45.822Z,13.10
2022-08-18T07:32:43.828Z,10.40
2022-08-18T07:33:43.803Z,16.80
2022-08-18T07:34:43.837Z,13.00
2022-08-18T07:35:43.791Z,15.90
2022-08-18T07:36:43.794Z,22.10
2022-08-18T07:37:43.766Z,15.10
2022-08-18T07:38:44.414Z,14.70
2022-08-18T07:39:48.466Z,17.30
2022-08-18T07:40:43.777Z,13.50
2022-08-18T07:41:43.757Z,12.20
2022-08-18T07:43:00.923Z,16.90
2022-08-18T07:43:44.717Z,13.90
2022-08-18T07:44:43.752Z,14.30
2022-08-18T07:45:43.707Z,13.20
2022-08-18T07:46:43.784Z,11.20
2022-08-18T07:47:43.695Z,17.50
2022-08-18T07:48:43.677Z,11.00
2022-08-18T07:50:13.466Z,12.50
2022-08-18T07:50:58.379Z,14.70
2022-08-18T07:51:45.721Z,18.00
2022-08-18T07:52:46.809Z,15.80
2022-08-18T07:53:43.642Z,15.10
2022-08-18T07:54:49.354Z,14.50
2022-08-18T07:55:45.630Z,11.50
2022-08-18T07:56:43.711Z,14.20
2022-08-18T07:57:43.623Z,18.40
2022-08-18T07:58:43.595Z,17.80
2022-08-18T07:59:43.594Z,18.20
2022-08-18T08:01:00.154Z,16.20
2022-08-18T08:01:45.660Z,18.40
2022-08-18T08:02:43.580Z,18.40
2022-08-18T08:03:43.555Z,19.30
2022-08-18T08:04:43.543Z,15.50
2022-08-18T08:05:43.584Z,17.10
2022-08-18T08:07:06.107Z,20.70
2022-08-18T08:07:45.649Z,17.30
2022-08-18T08:08:43.527Z,19.90
2022-08-18T08:09:47.146Z,21.80
2022-08-18T08:10:44.524Z,22.20
2022-08-18T08:11:44.426Z,24.90
2022-08-18T08:12:43.480Z,25.90
2022-08-18T08:13:55.207Z,19.20
2022-08-18T08:14:45.468Z,30.60
2022-08-18T08:15:43.498Z,25.40
2022-08-18T08:16:43.472Z,24.00
2022-08-18T08:17:43.450Z,24.60
2022-08-18T08:18:43.432Z,26.10
2022-08-18T08:19:59.895Z,25.90
2022-08-18T08:20:45.478Z,17.90
2022-08-18T08:21:43.435Z,26.50
2022-08-18T08:22:44.407Z,17.70
2022-08-18T08:23:45.298Z,19.70
2022-08-18T08:24:44.386Z,21.80
2022-08-18T08:25:46.761Z,24.10
2022-08-18T08:26:44.372Z,19.70
2022-08-18T08:27:43.363Z,23.10
2022-08-18T08:28:43.386Z,23.10
2022-08-18T08:29:43.349Z,24.90
2022-08-18T08:30:43.373Z,19.90
2022-08-18T08:31:43.372Z,24.00
2022-08-18T08:32:43.332Z,29.90
2022-08-18T08:33:43.318Z,28.00
2022-08-18T08:34:43.316Z,27.20
2022-08-18T08:35:47.268Z,26.30
2022-08-18T08:36:44.297Z,28.30
2022-08-18T08:37:43.296Z,29.90
2022-08-18T08:38:44.963Z,25.60
2022-08-18T08:39:44.322Z,25.60
2022-08-18T08:40:43.303Z,27.10
2022-08-18T08:41:43.281Z,29.20
2022-08-18T08:42:43.251Z,23.20
2022-08-18T08:43:43.234Z,24.30
2022-08-18T08:44:58.445Z,25.70
2022-08-18T08:45:45.252Z,21.90
2022-08-18T08:46:43.217Z,23.10
2022-08-18T08:47:43.200Z,24.60
2022-08-18T08:48:43.193Z,24.40
2022-08-18T08:49:43.177Z,19.60
2022-08-18T08:50:43.209Z,23.40
2022-08-18T08:51:43.165Z,22.90
2022-08-18T08:52:43.165Z,22.50
2022-08-18T08:53:43.176Z,21.80
2022-08-18T08:54:43.153Z,22.20
2022-08-18T08:55:43.140Z,18.70
2022-08-18T08:56:43.162Z,23.50
2022-08-18T08:57:43.118Z,27.00
2022-08-18T08:58:43.111Z,27.00
2022-08-18T08:59:43.104Z,27.20
2022-08-18T09:00:43.111Z,28.40
2022-08-18T09:01:43.338Z,24.80
2022-08-18T09:02:48.167Z,24.40
2022-08-18T09:03:45.077Z,23.90
2022-08-18T09:05:07.324Z,28.00
2022-08-18T09:05:44.057Z,24.60
2022-08-18T09:06:43.088Z,21.90
2022-08-18T09:07:43.042Z,25.10
2022-08-18T09:08:43.038Z,25.60
2022-08-18T09:09:43.023Z,28.90
2022-08-18T09:10:43.011Z,25.50
2022-08-18T09:11:43.041Z,23.20
2022-08-18T09:12:42.986Z,28.80
2022-08-18T09:13:43.992Z,24.20
2022-08-18T09:14:42.988Z,26.70
2022-08-18T09:15:42.976Z,26.80
2022-08-18T09:16:43.031Z,29.20
2022-08-18T09:17:42.964Z,30.40
2022-08-18T09:18:42.949Z,20.50
2022-08-18T09:19:42.940Z,25.60
2022-08-18T09:20:47.199Z,17.10
2022-08-18T09:21:44.974Z,17.90
2022-08-18T09:22:42.913Z,18.10
2022-08-18T09:23:42.906Z,17.20
2022-08-18T09:24:42.937Z,19.50
2022-08-18T09:25:42.897Z,15.50
2022-08-18T09:26:42.927Z,18.20
2022-08-18T09:28:09.358Z,20.70
2022-08-18T09:28:44.860Z,20.40
2022-08-18T09:29:44.198Z,25.50
2022-08-18T09:30:42.858Z,27.90
2022-08-18T09:31:42.927Z,29.00
2022-08-18T09:32:49.174Z,28.50
2022-08-18T09:33:43.841Z,33.40
2022-08-18T09:34:45.511Z,27.30
2022-08-18T09:35:42.842Z,33.40
2022-08-18T09:36:42.801Z,30.90
2022-08-18T09:37:42.836Z,30.30
2022-08-18T09:38:42.790Z,30.50
2022-08-18T09:39:42.808Z,31.40
2022-08-18T09:41:44.780Z,33.60
2022-08-18T09:42:48.405Z,32.00
2022-08-18T09:43:43.769Z,35.80
2022-08-18T09:44:42.850Z,32.10
2022-08-18T09:45:42.751Z,35.60
2022-08-18T09:47:43.697Z,34.80
2022-08-18T09:50:37.346Z,39.40
2022-08-18T09:50:43.708Z,36.20
2022-08-18T09:51:42.692Z,32.90
2022-08-18T09:52:42.697Z,46.50
2022-08-18T09:53:42.712Z,40.60
2022-08-18T09:54:42.679Z,31.40
2022-08-18T09:55:52.096Z,32.60
2022-08-18T09:56:53.470Z,33.20
2022-08-18T09:57:44.036Z,35.10
2022-08-18T09:58:42.630Z,35.40
2022-08-18T09:59:42.611Z,35.80
2022-08-18T10:00:42.640Z,33.10
2022-08-18T10:01:42.684Z,34.80
2022-08-18T10:02:47.613Z,31.90
2022-08-18T10:03:43.600Z,35.90
2022-08-18T10:04:42.573Z,30.30
2022-08-18T10:05:42.594Z,37.20
2022-08-18T10:06:42.978Z,36.80
2022-08-18T10:07:44.152Z,46.50
2022-08-18T10:08:42.755Z,43.10
2022-08-18T10:09:44.052Z,40.90
2022-08-18T10:11:00.755Z,39.40
2022-08-18T10:11:43.542Z,41.90
2022-08-18T10:12:42.531Z,39.50
2022-08-18T10:13:48.963Z,44.80
2022-08-18T10:14:45.113Z,44.20
2022-08-18T10:15:42.525Z,38.00
2022-08-18T10:17:12.953Z,40.70
2022-08-18T10:17:44.449Z,41.20
2022-08-18T10:18:42.449Z,42.90
2022-08-18T10:19:42.444Z,39.00
2022-08-18T10:20:42.630Z,37.90
2022-08-18T10:21:42.469Z,34.30
2022-08-18T10:22:42.422Z,40.00
2022-08-18T10:23:47.995Z,40.00
2022-08-18T10:24:43.415Z,38.90
2022-08-18T10:25:42.429Z,41.10
2022-08-18T10:26:42.382Z,38.80
2022-08-18T10:27:43.376Z,40.50
2022-08-18T10:28:42.373Z,41.20
2022-08-18T10:29:42.369Z,39.60
2022-08-18T10:30:49.883Z,41.90
2022-08-18T10:31:43.337Z,36.50
2022-08-18T10:32:44.372Z,34.40
2022-08-18T10:33:43.331Z,38.30
2022-08-18T10:34:51.471Z,37.80
2022-08-18T10:35:43.369Z,39.10
2022-08-18T10:36:42.303Z,37.50
2022-08-18T10:37:42.298Z,36.50
2022-08-18T10:38:46.173Z,40.80
2022-08-18T10:39:43.291Z,43.30
2022-08-18T10:40:42.282Z,43.00
2022-08-18T10:41:42.289Z,35.80
2022-08-18T10:42:42.252Z,39.90
2022-08-18T10:43:46.201Z,40.80
2022-08-18T10:44:44.251Z,44.80
2022-08-18T10:45:50.775Z,43.40
2022-08-18T10:46:46.691Z,41.80
2022-08-18T10:47:42.243Z,43.90
2022-08-18T10:48:42.201Z,38.80
2022-08-18T10:50:43.183Z,37.30
2022-08-18T10:51:58.010Z,41.60
2022-08-18T10:53:44.961Z,41.10
2022-08-18T10:54:51.025Z,44.00
2022-08-18T10:55:48.571Z,40.30
2022-08-18T10:56:43.830Z,43.90
2022-08-18T10:57:42.139Z,47.60
2022-08-18T10:58:42.152Z,42.30
2022-08-18T10:59:52.208Z,44.00
2022-08-18T11:00:43.139Z,42.40
2022-08-18T11:01:42.102Z,44.20
2022-08-18T11:02:42.109Z,41.70
2022-08-18T11:03:51.087Z,46.80
2022-08-18T11:04:44.079Z,47.60
2022-08-18T11:05:42.101Z,43.50
2022-08-18T11:06:42.064Z,43.90
2022-08-18T11:07:42.710Z,40.50
2022-08-18T11:08:42.048Z,39.70
2022-08-18T11:09:45.905Z,42.10
2022-08-18T11:10:58.078Z,43.40
2022-08-18T11:11:52.927Z,41.70
2022-08-18T11:12:43.045Z,46.60
2022-08-18T11:13:42.007Z,44.90
2022-08-18T11:14:41.995Z,47.30
2022-08-18T11:15:41.993Z,48.60
2022-08-18T11:16:42.017Z,53.80
2022-08-18T11:17:42.891Z,59.00
2022-08-18T11:18:43.123Z,55.70
2022-08-18T11:19:42.412Z,59.40
2022-08-18T11:20:43.447Z,56.30
2022-08-18T11:21:43.348Z,54.50
2022-08-18T11:22:41.936Z,55.90
2022-08-18T11:23:42.922Z,50.10
2022-08-18T11:24:41.910Z,54.00
2022-08-18T11:25:41.940Z,51.80
2022-08-18T11:26:41.897Z,54.00
2022-08-18T11:27:41.890Z,60.00
2022-08-18T11:28:45.104Z,60.10
2022-08-18T11:29:41.907Z,55.90
2022-08-18T11:30:41.899Z,58.50
2022-08-18T11:31:41.859Z,54.30
2022-08-18T11:32:51.362Z,54.10
2022-08-18T11:33:42.853Z,54.40
2022-08-18T11:34:45.846Z,56.60
2022-08-18T11:35:42.851Z,61.50
2022-08-18T11:36:47.918Z,60.30
2022-08-18T11:37:49.578Z,56.20
2022-08-18T11:38:42.796Z,60.00
2022-08-18T11:39:41.845Z,55.60
2022-08-18T11:41:48.638Z,56.60
2022-08-18T11:42:42.769Z,53.70
2022-08-18T11:44:42.756Z,55.00
2022-08-18T11:45:41.772Z,53.10
2022-08-18T11:46:42.913Z,57.10
2022-08-18T11:47:41.720Z,58.40
2022-08-18T11:48:51.444Z,55.30
2022-08-18T11:49:42.728Z,59.10
2022-08-18T11:50:41.780Z,54.70
2022-08-18T11:51:42.689Z,55.90
2022-08-18T11:52:41.682Z,57.60
2022-08-18T11:53:41.674Z,58.70
2022-08-18T11:54:50.859Z,59.80
2022-08-18T11:55:48.259Z,59.40
2022-08-18T11:56:42.648Z,60.10
2022-08-18T11:57:46.539Z,59.50
2022-08-18T11:58:42.632Z,61.00
2022-08-18T12:00:44.068Z,60.70
2022-08-18T12:01:42.499Z,60.60
2022-08-18T12:02:42.604Z,57.60
2022-08-18T12:03:41.718Z,55.50
2022-08-18T12:04:41.579Z,59.30
2022-08-18T12:05:45.769Z,58.30
2022-08-18T12:06:43.140Z,58.30
2022-08-18T12:07:41.557Z,72.80
2022-08-18T12:08:56.527Z,59.50
2022-08-18T12:10:16.063Z,60.40
2022-08-18T12:10:43.570Z,66.00
2022-08-18T12:11:42.748Z,56.70
2022-08-18T12:12:41.524Z,59.90
2022-08-18T12:13:41.536Z,59.80
2022-08-18T12:14:41.518Z,57.80
2022-08-18T12:15:43.736Z,54.20
2022-08-18T12:16:41.495Z,59.10
2022-08-18T12:17:42.489Z,57.20
2022-08-18T12:18:42.496Z,57.40
2022-08-18T12:19:41.466Z,58.00
2022-08-18T12:20:41.494Z,62.30
2022-08-18T12:21:41.498Z,59.50
2022-08-18T12:22:41.453Z,63.20
2022-08-18T12:23:49.614Z,58.10
2022-08-18T12:24:42.484Z,57.70
2022-08-18T12:25:41.458Z,60.60
2022-08-18T12:26:47.331Z,57.80
2022-08-18T12:27:42.413Z,56.80
2022-08-18T12:28:41.413Z,60.40
2022-08-18T12:29:43.590Z,58.80
2022-08-18T12:30:42.154Z,60.70
2022-08-18T12:31:47.570Z,61.30
2022-08-18T12:32:49.481Z,54.20
2022-08-18T12:33:48.099Z,59.40
2022-08-18T12:34:42.339Z,60.00
2022-08-18T12:35:42.336Z,58.60
2022-08-18T12:36:42.385Z,57.70
2022-08-18T12:38:43.307Z,55.60
2022-08-18T12:39:41.325Z,59.40
2022-08-18T12:40:41.287Z,61.80
2022-08-18T12:41:41.322Z,58.10
2022-08-18T12:42:41.271Z,59.00
2022-08-18T12:43:41.299Z,61.60
2022-08-18T12:44:41.255Z,58.30
2022-08-18T12:45:41.374Z,57.10
2022-08-18T12:46:42.227Z,56.10
2022-08-18T12:47:41.228Z,59.50
2022-08-18T12:48:41.225Z,60.30
2022-08-18T12:49:41.228Z,58.80
2022-08-18T12:50:54.045Z,59.20
2022-08-18T12:51:43.228Z,57.10
2022-08-18T12:52:41.202Z,55.80
2022-08-18T12:53:58.436Z,58.90
2022-08-18T12:54:55.081Z,57.90
2022-08-18T12:55:43.686Z,57.50
2022-08-18T12:56:41.190Z,59.90
2022-08-18T12:57:53.511Z,58.80
2022-08-18T12:58:42.149Z,58.40
2022-08-18T12:59:41.136Z,59.50
2022-08-18T13:00:41.315Z,57.10
2022-08-18T13:01:41.185Z,62.90
2022-08-18T13:02:42.180Z,55.10
2022-08-18T13:04:42.134Z,60.20
2022-08-18T13:05:41.088Z,57.50
2022-08-18T13:06:41.151Z,61.70
2022-08-18T13:07:42.072Z,59.30
2022-08-18T13:08:49.960Z,60.40
2022-08-18T13:09:53.014Z,64.80
2022-08-18T13:10:45.491Z,61.20
2022-08-18T13:11:41.124Z,60.70